Athens, Alabama
Current Conditions -  °F | °C
As of 12:53 PM on Friday 24 Oct 2014 (Local Time) from KDCU Reporting Station
Clear Clear  
Wind Chill: 69°   Ceiling: Unl
Heat Index: 69°   Visibility: 10mi
Dew Point: 41°   Wind: 8mph
Humidity: 36%   Direction: 330°NNW
Pressure: 30.1"   Gusts: NA
Location:  34.8°N, 86.97°W
Report Text: KDCU 241753Z AUTO 33007KT 10SM CLR 21/05 A3010 RMK AO2 SLP188 T02060050 10206 20067 58015
Loading
Personal Weather Stations






























Interactive Weather Map
Tropical Storm Tracking
New forecast layout! Learn more

10-Day Weather Forecast

Advertisements
Track Severe Weather on mobile